EDT,Max TemperatureF,Mean TemperatureF,Min TemperatureF,Max Dew PointF,MeanDew PointF,Min DewpointF,Max Humidity, Mean Humidity, Min Humidity, Max Sea Level PressureIn, Mean Sea Level PressureIn, Min Sea Level PressureIn, Max VisibilityMiles, Mean VisibilityMiles, Min VisibilityMiles, Max Wind SpeedMPH, Mean Wind SpeedMPH, Max Gust SpeedMPH,PrecipitationIn, CloudCover, Events, WindDirDegrees
2012-10-1,66,51,36,53,43,36,100,79,41,29.95,29.90,29.84,10,8,0,5,0,,0.00,1,Fog,69
2012-10-2,70,60,51,53,48,43,88,67,39,29.92,29.86,29.81,10,10,10,13,3,,0.00,7,Rain,55
2012-10-3,64,60,56,58,55,53,95,84,69,30.04,29.97,29.90,10,9,4,10,3,,0.00,8,Rain,185
2012-10-4,76,65,54,59,53,47,94,71,36,30.06,30.02,29.97,10,9,5,17,7,25,0.02,4,Rain,214
2012-10-5,58,52,45,56,45,39,91,81,56,30.07,30.02,29.95,10,10,7,14,8,20,0.02,5,Rain,240
2012-10-6,46,42,39,42,37,33,93,78,61,30.11,30.02,29.93,10,10,5,15,7,21,0.00,7,,258
2012-10-7,47,40,34,40,38,34,98,85,69,30.13,30.09,30.07,10,10,2,8,1,,0.01,7,Rain,289
2012-10-8,55,42,30,34,29,24,100,68,31,30.17,30.12,30.06,10,9,2,15,4,21,0.00,1,,198
2012-10-9,62,50,38,38,34,30,72,54,37,30.05,29.94,29.77,10,10,10,23,10,29,0.00,0,,195
2012-10-10,55,46,33,43,35,28,97,75,50,30.14,29.95,29.77,10,10,5,18,9,28,0.17,7,Rain,270
2012-10-11,63,46,29,41,33,28,98,66,31,30.19,30.09,30.00,10,10,10,23,7,32,0.01,2,Rain,233
2012-10-12,51,42,30,40,31,20,95,70,30,30.43,30.35,30.19,10,10,10,12,3,,0.04,1,Rain,14
2012-10-13,63,46,31,62,40,27,97,88,74,30.35,30.11,29.85,10,7,2,15,4,18,0.68,5,Rain,160
2012-10-14,70,61,52,64,61,50,96,87,67,29.84,29.62,29.40,10,7,2,23,12,34,0.43,8,Rain,199
2012-10-15,51,48,45,50,43,40,95,82,74,29.95,29.79,29.56,10,10,3,17,11,26,0.00,8,Rain,285
2012-10-16,61,46,31,43,38,31,100,71,43,29.96,29.86,29.68,10,10,1,13,4,18,0.00,2,Rain,168
2012-10-17,75,65,55,56,48,40,94,62,30,29.68,29.59,29.50,10,10,5,24,13,33,0.20,4,Rain,182
2012-10-18,59,52,44,56,44,32,94,69,39,29.62,29.46,29.32,10,10,5,21,12,30,0.38,6,Rain,189
2012-10-19,50,46,43,48,43,40,97,89,80,29.61,29.54,29.50,10,9,7,13,4,20,0.20,8,Rain,155
2012-10-20,58,48,39,47,44,38,98,84,51,29.90,29.71,29.56,10,9,2,15,5,18,0.01,6,Rain,254
2012-10-21,62,48,33,52,40,34,100,84,42,30.07,30.02,29.90,10,6,0,9,1,,0.00,1,Fog,208
2012-10-22,71,56,40,60,51,38,97,84,57,30.05,30.00,29.94,10,8,2,15,2,18,0.91,3,Rain,166
2012-10-23,64,62,61,62,61,60,96,93,87,29.98,29.94,29.87,10,7,2,8,4,,0.18,8,Rain,200
2012-10-24,78,68,58,61,60,57,94,77,52,30.00,29.96,29.93,10,10,7,14,6,17,0.00,2,Rain,186
2012-10-25,77,68,58,59,55,53,84,64,46,29.95,29.87,29.79,10,10,10,28,11,37,0.00,1,,186
2012-10-26,69,55,41,56,38,32,93,72,53,30.24,30.14,29.83,10,10,4,23,11,29,0.03,4,Rain,315
2012-10-27,52,42,32,34,32,30,95,69,42,30.24,30.20,30.15,10,10,7,13,6,16,0.00,1,,357
2012-10-28,48,40,32,35,31,25,85,70,53,30.23,30.19,30.15,10,10,10,20,7,26,0.00,4,Rain,14
2012-10-29,45,40,35,29,24,18,77,55,34,30.16,30.05,29.82,10,10,10,21,11,31,0.00,0,,349
2012-10-30,40,38,36,37,33,21,96,85,47,29.81,29.61,29.55,10,7,3,25,17,38,0.19,8,Rain,342
2012-10-31,41,39,37,40,38,36,97,95,87,29.69,29.62,29.57,10,5,2,15,10,21,0.01,8,Rain,310